createdAt,value
2023-05-04T00:01:11.136Z,101374.20
2023-05-04T00:03:38.844Z,101393.18
2023-05-04T00:06:05.996Z,101420.09
2023-05-04T00:08:32.963Z,101434.81
2023-05-04T00:10:59.883Z,101457.40
2023-05-04T00:13:27.034Z,101467.81
2023-05-04T00:15:54.127Z,101479.42
2023-05-04T00:18:21.662Z,101485.69
2023-05-04T00:20:48.704Z,101495.27
2023-05-04T00:23:15.634Z,101524.61
2023-05-04T00:25:42.676Z,101560.13
2023-05-04T00:28:09.630Z,101591.97
2023-05-04T00:30:36.572Z,101603.08
2023-05-04T00:33:03.781Z,101596.39
2023-05-04T00:35:31.893Z,101585.80
2023-05-04T00:37:58.936Z,101569.95
2023-05-04T00:40:25.885Z,101551.34
2023-05-04T00:42:52.922Z,101543.36
2023-05-04T00:45:20.400Z,101552.62
2023-05-04T00:47:48.731Z,101552.33
2023-05-04T00:50:15.827Z,101547.98
2023-05-04T00:52:43.880Z,101541.30
2023-05-04T00:55:11.540Z,101544.83
2023-05-04T00:57:38.724Z,101550.41
2023-05-04T01:00:07.057Z,101547.38
2023-05-04T01:02:35.082Z,101541.30
2023-05-04T01:05:02.410Z,101514.14
2023-05-04T01:07:54.018Z,101486.25
2023-05-04T01:10:27.838Z,101454.73
2023-05-04T01:13:04.461Z,101424.92
2023-05-04T01:15:32.682Z,101395.11
2023-05-04T01:17:59.720Z,101363.93
2023-05-04T01:20:26.864Z,101337.02
2023-05-04T01:22:53.910Z,101318.82
2023-05-04T01:25:21.157Z,101307.14
2023-05-04T01:28:02.766Z,101295.09
2023-05-04T01:30:36.312Z,101290.60
2023-05-04T01:33:03.739Z,101283.84
2023-05-04T01:35:30.852Z,101286.90
2023-05-04T01:37:57.795Z,101288.94
2023-05-04T01:40:24.853Z,101289.96
2023-05-04T01:42:51.885Z,101285.69
2023-05-04T01:45:19.250Z,101287.38
2023-05-04T01:47:46.849Z,101284.29
2023-05-04T01:50:13.849Z,101290.34
2023-05-04T01:52:40.895Z,101289.52
2023-05-04T01:55:08.463Z,101286.23
2023-05-04T01:57:35.595Z,101285.69
2023-05-04T02:00:04.223Z,101277.90
2023-05-04T02:02:43.340Z,101285.05
2023-05-04T02:05:11.083Z,101294.45
2023-05-04T02:07:38.934Z,101305.95
2023-05-04T02:10:08.960Z,101308.35
2023-05-04T02:12:36.025Z,101303.89
2023-05-04T02:15:03.663Z,101297.90
2023-05-04T02:17:31.690Z,101297.44
2023-05-04T02:19:58.678Z,101292.15
2023-05-04T02:22:25.845Z,101290.64
2023-05-04T02:24:53.078Z,101288.95
2023-05-04T02:27:20.968Z,101291.71
2023-05-04T02:29:48.924Z,101288.63
2023-05-04T02:32:15.972Z,101285.02
2023-05-04T02:34:43.537Z,101282.95
2023-05-04T02:37:10.568Z,101276.42
2023-05-04T02:39:37.925Z,101276.21
2023-05-04T02:42:05.274Z,101278.56
2023-05-04T02:44:32.433Z,101281.27
2023-05-04T02:46:59.473Z,101279.34
2023-05-04T02:49:26.522Z,101282.04
2023-05-04T02:51:53.783Z,101283.02
2023-05-04T02:54:21.022Z,101289.66
2023-05-04T02:56:48.077Z,101302.31
2023-05-04T02:59:15.218Z,101322.38
2023-05-04T03:01:42.212Z,101337.85
2023-05-04T03:04:09.231Z,101344.45
2023-05-04T03:06:36.575Z,101332.50
2023-05-04T03:09:04.646Z,101323.97
2023-05-04T03:11:31.582Z,101316.27
2023-05-04T03:13:58.632Z,101308.87
2023-05-04T03:16:25.840Z,101305.26
2023-05-04T03:18:52.928Z,101302.55
2023-05-04T03:21:19.980Z,101298.20
2023-05-04T03:23:48.245Z,101292.39
2023-05-04T03:26:15.403Z,101285.20
2023-05-04T03:28:42.450Z,101280.23
2023-05-04T03:31:09.698Z,101278.87
2023-05-04T03:33:36.977Z,101275.48
2023-05-04T03:36:04.722Z,101269.85
2023-05-04T03:38:31.926Z,101264.75
2023-05-04T03:40:59.316Z,101259.86
2023-05-04T03:43:26.365Z,101261.67
2023-05-04T03:45:54.054Z,101256.61
2023-05-04T03:48:21.291Z,101259.61
2023-05-04T03:50:48.527Z,101256.88
2023-05-04T03:53:15.679Z,101261.36
2023-05-04T03:55:42.935Z,101268.75
2023-05-04T03:58:10.386Z,101274.88
2023-05-04T04:00:37.440Z,101292.54
2023-05-04T04:03:09.653Z,101317.09
2023-05-04T04:05:37.184Z,101336.94
2023-05-04T04:08:04.310Z,101365.91
2023-05-04T04:10:31.666Z,101396.59
2023-05-04T04:12:58.664Z,101427.81
2023-05-04T04:15:25.648Z,101464.08
2023-05-04T04:17:53.008Z,101492.70
2023-05-04T04:20:20.061Z,101511.73
2023-05-04T04:22:47.098Z,101536.01
2023-05-04T04:25:14.050Z,101563.42
2023-05-04T04:27:41.741Z,101576.84
2023-05-04T04:30:09.371Z,101591.44
2023-05-04T04:32:37.654Z,101602.52
2023-05-04T04:35:05.282Z,101608.36
2023-05-04T04:37:32.246Z,101614.47
2023-05-04T04:39:59.296Z,101615.66
2023-05-04T04:42:26.456Z,101608.73
2023-05-04T04:44:53.593Z,101621.07
2023-05-04T04:47:20.638Z,101614.99
2023-05-04T04:49:47.994Z,101611.39
2023-05-04T04:52:15.729Z,101596.70
2023-05-04T04:54:42.806Z,101597.11
2023-05-04T04:57:10.570Z,101585.14
2023-05-04T04:59:38.328Z,101616.34
2023-05-04T05:02:05.378Z,101596.64
2023-05-04T05:04:32.680Z,101537.73
2023-05-04T05:06:59.888Z,101537.13
2023-05-04T05:09:27.032Z,101540.42
2023-05-04T05:11:54.090Z,101573.36
2023-05-04T05:14:21.039Z,101557.16
2023-05-04T05:16:48.085Z,101565.96
2023-05-04T05:19:15.526Z,101561.64
2023-05-04T05:21:42.470Z,101566.52
2023-05-04T05:24:09.620Z,101527.73
2023-05-04T05:26:36.672Z,101518.55
2023-05-04T05:29:03.822Z,101540.24
2023-05-04T05:31:30.780Z,101543.30
2023-05-04T05:33:57.814Z,101465.71
2023-05-04T05:36:24.754Z,101465.63
2023-05-04T05:38:52.630Z,101437.58
2023-05-04T05:41:19.560Z,101416.75
2023-05-04T05:43:46.503Z,101433.66
2023-05-04T05:46:13.697Z,101401.95
2023-05-04T05:48:42.777Z,101452.09
2023-05-04T05:51:09.901Z,101435.76
2023-05-04T05:53:36.945Z,101441.23
2023-05-04T05:56:04.100Z,101515.94
2023-05-04T05:58:31.465Z,101497.33
2023-05-04T06:00:58.505Z,101530.67
2023-05-04T06:03:25.808Z,101548.55
2023-05-04T06:05:52.897Z,101539.58
2023-05-04T06:08:19.893Z,101509.54
2023-05-04T06:10:46.885Z,101510.59
2023-05-04T06:13:13.955Z,101441.20
2023-05-04T06:15:41.079Z,101518.69
2023-05-04T06:18:08.159Z,101494.61
2023-05-04T06:20:35.077Z,101519.38
2023-05-04T06:23:02.023Z,101490.33
2023-05-04T06:25:29.075Z,101546.08
2023-05-04T06:27:56.136Z,101501.30
2023-05-04T06:30:24.637Z,101500.51
2023-05-04T06:32:51.706Z,101459.75
2023-05-04T06:35:19.215Z,101449.26
2023-05-04T06:37:46.654Z,101338.48
2023-05-04T06:40:14.348Z,101389.76
2023-05-04T06:42:41.776Z,101348.14
2023-05-04T06:45:09.389Z,101380.68
2023-05-04T06:47:38.123Z,101401.25
2023-05-04T06:50:09.704Z,101349.79
2023-05-04T06:52:41.288Z,101351.36
2023-05-04T06:55:08.485Z,101285.45
2023-05-04T06:57:35.724Z,101276.45
2023-05-04T07:00:04.708Z,101376.60
2023-05-04T07:02:32.097Z,101350.13
2023-05-04T07:04:59.125Z,101359.80
2023-05-04T07:07:26.166Z,101243.46
2023-05-04T07:09:53.211Z,101227.80
2023-05-04T07:12:20.360Z,101223.52
2023-05-04T07:14:47.421Z,101201.16
2023-05-04T07:17:15.255Z,101242.46
2023-05-04T07:19:42.525Z,101146.88
2023-05-04T07:22:09.567Z,101159.26
2023-05-04T07:24:36.728Z,101160.48
2023-05-04T07:27:03.869Z,101145.20
2023-05-04T07:29:31.424Z,101062.01
2023-05-04T07:31:58.527Z,101065.50
2023-05-04T07:34:37.729Z,101091.53
2023-05-04T07:37:05.887Z,101106.58
2023-05-04T07:39:35.224Z,101130.63
2023-05-04T07:42:06.218Z,101048.90
2023-05-04T07:44:33.280Z,101081.00
2023-05-04T07:47:01.046Z,101017.79
2023-05-04T07:49:28.072Z,100981.64
2023-05-04T07:51:55.373Z,101113.58
2023-05-04T07:54:23.079Z,101074.21
2023-05-04T07:56:50.649Z,101025.44
2023-05-04T07:59:18.781Z,100967.11
2023-05-04T08:01:46.915Z,100844.26
2023-05-04T08:04:14.289Z,100852.23
2023-05-04T08:06:41.909Z,100785.09
2023-05-04T08:09:09.386Z,100802.08
2023-05-04T08:11:38.318Z,100805.72
2023-05-04T08:14:05.408Z,100889.05
2023-05-04T08:16:32.760Z,100809.83
2023-05-04T08:19:00.214Z,100736.90
2023-05-04T08:21:27.363Z,100926.60
2023-05-04T08:23:54.435Z,100913.41
2023-05-04T08:26:21.460Z,100999.92
2023-05-04T08:28:49.118Z,100929.43
2023-05-04T08:31:18.487Z,100876.56
2023-05-04T08:33:46.392Z,100889.42
2023-05-04T08:36:13.437Z,100943.96
2023-05-04T08:38:40.491Z,100968.92
2023-05-04T08:41:09.206Z,100961.83
2023-05-04T08:43:37.149Z,100940.62
2023-05-04T08:46:05.072Z,100974.84
2023-05-04T08:48:33.696Z,100999.40
2023-05-04T08:51:01.251Z,100917.63
2023-05-04T08:53:28.294Z,101043.68
2023-05-04T08:55:56.157Z,101037.70
2023-05-04T08:58:23.050Z,101118.54
2023-05-04T09:00:50.089Z,100973.30
2023-05-04T09:03:17.270Z,100935.32
2023-05-04T09:05:45.093Z,100802.81
2023-05-04T09:08:11.982Z,100861.86
2023-05-04T09:10:38.917Z,100796.00
2023-05-04T09:13:05.871Z,100895.02
2023-05-04T12:17:42.347Z,99987.80
2023-05-04T12:20:10.294Z,99963.65
2023-05-04T12:22:37.926Z,99952.90
2023-05-04T12:25:07.543Z,99851.48
2023-05-04T12:27:34.881Z,99845.33
2023-05-04T12:30:01.934Z,99735.80
2023-05-04T12:32:29.410Z,99724.14
2023-05-04T12:34:56.537Z,99668.14
2023-05-04T12:37:25.096Z,99704.49
2023-05-04T12:39:52.261Z,99839.42
2023-05-04T12:42:19.428Z,99951.20
2023-05-04T12:44:46.360Z,99976.94
2023-05-04T12:47:14.432Z,99971.49
2023-05-04T12:49:41.321Z,99933.13
2023-05-04T12:52:09.143Z,99868.08
2023-05-04T12:54:36.079Z,99982.25
2023-05-04T12:57:03.646Z,100057.02
2023-05-04T12:59:30.588Z,100066.27
2023-05-04T13:01:57.632Z,100093.26
2023-05-04T13:04:24.680Z,100144.56
2023-05-04T13:06:52.136Z,100126.70
2023-05-04T13:09:20.898Z,100028.13
2023-05-04T13:11:48.605Z,100022.45
2023-05-04T13:14:15.633Z,99914.04
2023-05-04T13:16:42.680Z,99970.28
2023-05-04T13:19:09.628Z,99862.28
2023-05-04T13:21:36.782Z,99779.86
2023-05-04T13:24:04.111Z,99778.80
2023-05-04T13:26:31.686Z,99708.98
2023-05-04T13:28:58.631Z,99542.00
2023-05-04T13:31:25.725Z,99539.77
2023-05-04T13:33:53.547Z,99479.48
2023-05-04T13:36:21.101Z,99445.75
2023-05-04T13:38:48.207Z,99435.81
2023-05-04T13:41:15.564Z,99438.81
2023-05-04T13:43:42.652Z,99435.58
2023-05-04T13:46:09.831Z,99445.80
2023-05-04T13:48:36.846Z,99317.02
2023-05-04T13:51:04.518Z,99331.85
2023-05-04T13:53:31.454Z,99385.27
2023-05-04T13:55:58.708Z,99358.11
2023-05-04T13:58:25.854Z,99235.80
2023-05-04T14:00:56.901Z,99277.30
2023-05-04T14:03:23.973Z,99189.64
2023-05-04T14:05:51.825Z,99156.02
2023-05-04T14:08:18.809Z,99254.55
2023-05-04T14:10:45.798Z,99189.31
2023-05-04T14:13:12.986Z,99266.74
2023-05-04T14:15:40.813Z,99227.16
2023-05-04T14:18:08.003Z,99281.68
2023-05-04T14:20:35.312Z,99212.77
2023-05-04T14:23:02.871Z,99229.84
2023-05-04T14:25:29.921Z,99299.02
2023-05-04T14:27:57.474Z,99284.69
2023-05-04T14:30:25.246Z,99227.92
2023-05-04T14:32:55.849Z,99252.73
2023-05-04T14:35:23.028Z,99366.35
2023-05-04T14:37:50.883Z,99348.77
2023-05-04T14:40:18.048Z,99365.70
2023-05-04T14:42:44.976Z,99328.63
2023-05-04T14:45:13.256Z,99400.20
2023-05-04T14:47:42.419Z,99442.29
2023-05-04T14:50:10.393Z,99502.25
2023-05-04T14:52:37.878Z,99555.47
2023-05-04T14:55:06.896Z,99528.66
2023-05-04T14:57:33.924Z,99534.45
2023-05-04T15:00:01.267Z,99628.25
2023-05-04T15:02:28.257Z,99655.35
2023-05-04T15:04:55.482Z,99673.59
2023-05-04T15:07:23.131Z,99741.38
2023-05-04T15:09:50.067Z,99796.79
2023-05-04T15:12:17.950Z,99834.83
2023-05-04T15:14:44.885Z,99855.98
2023-05-04T15:17:11.923Z,99892.52
2023-05-04T15:19:39.406Z,99961.98
2023-05-04T15:22:06.960Z,99962.88
2023-05-04T15:24:33.989Z,99928.72
2023-05-04T15:27:02.223Z,99939.23
2023-05-04T15:29:29.672Z,99965.85
2023-05-04T15:31:56.797Z,99973.59
2023-05-04T15:34:24.018Z,99989.30
2023-05-04T15:36:50.956Z,100041.01
2023-05-04T15:39:17.901Z,100033.49
2023-05-04T15:41:44.860Z,100059.52
2023-05-04T15:44:12.000Z,100113.36
2023-05-04T15:46:38.957Z,100125.27
2023-05-04T15:49:05.883Z,100183.63
2023-05-04T15:51:32.935Z,100208.10
2023-05-04T15:54:00.309Z,100242.82
2023-05-04T15:56:28.148Z,100259.14
2023-05-04T15:58:55.193Z,100324.13
2023-05-04T16:01:22.458Z,100367.22
2023-05-04T16:03:49.535Z,100397.92
2023-05-04T16:06:17.922Z,100434.84
2023-05-04T16:08:45.129Z,100462.09
2023-05-04T16:11:12.288Z,100487.04
2023-05-04T16:13:39.320Z,100525.67
2023-05-04T16:16:06.985Z,100558.48
2023-05-04T16:18:34.033Z,100596.15
2023-05-04T16:21:01.098Z,100649.29
2023-05-04T16:23:28.532Z,100685.96
2023-05-04T16:25:56.296Z,100745.68
2023-05-04T16:28:23.370Z,100813.92
2023-05-04T16:30:51.033Z,100880.43
2023-05-04T16:33:19.281Z,100908.14
2023-05-04T16:35:47.350Z,100905.38
2023-05-04T16:38:14.395Z,100927.13
2023-05-04T16:40:42.048Z,100940.27
2023-05-04T16:43:10.640Z,100958.13
2023-05-04T16:45:38.521Z,101024.87
2023-05-04T16:48:05.892Z,101064.39
2023-05-04T16:50:33.117Z,101105.00
2023-05-04T16:53:00.174Z,101170.39
2023-05-04T16:55:27.716Z,101244.52
2023-05-04T16:57:58.080Z,101296.28
2023-05-04T17:00:25.195Z,101361.89
2023-05-04T17:02:53.086Z,101421.28
2023-05-04T17:05:21.360Z,101483.83
2023-05-04T17:07:48.290Z,101533.44
2023-05-04T17:10:15.651Z,101547.29
2023-05-04T17:12:42.703Z,101649.26
2023-05-04T17:15:10.130Z,101728.58
2023-05-04T17:17:37.347Z,101813.77
2023-05-04T17:20:04.940Z,101908.84
2023-05-04T17:22:32.325Z,101949.52
2023-05-04T17:24:59.867Z,101994.48
2023-05-04T17:27:26.797Z,102020.33
2023-05-04T17:29:53.756Z,102062.84
2023-05-04T17:32:20.817Z,102118.16
2023-05-04T17:34:47.938Z,102124.23
2023-05-04T17:37:14.781Z,102046.06
2023-05-04T17:39:41.725Z,101907.17
2023-05-04T17:42:08.675Z,101687.63
2023-05-04T17:44:35.514Z,101481.89
2023-05-04T17:47:02.373Z,101351.14
2023-05-04T17:49:29.331Z,101289.25
2023-05-04T17:51:56.752Z,101256.05
2023-05-04T17:54:23.614Z,101206.65
2023-05-04T17:56:50.868Z,101177.45
2023-05-04T17:59:17.999Z,101149.48
2023-05-04T18:01:44.975Z,101129.30
2023-05-04T18:04:11.985Z,101116.77
2023-05-04T18:06:39.444Z,101096.77
2023-05-04T18:09:06.385Z,101086.65
2023-05-04T18:11:33.429Z,101069.89
2023-05-04T18:14:00.279Z,101059.71
2023-05-04T18:16:27.188Z,101059.08
2023-05-04T18:18:54.795Z,101046.66
2023-05-04T18:21:23.568Z,101052.34
2023-05-04T18:23:50.404Z,101059.96
2023-05-04T18:26:17.873Z,101060.96
2023-05-04T18:28:44.714Z,101049.77
2023-05-04T18:31:12.065Z,101028.69
2023-05-04T18:33:39.308Z,101015.90
2023-05-04T18:36:06.761Z,101007.76
2023-05-04T18:38:34.428Z,101009.48
2023-05-04T18:41:01.682Z,101007.61
2023-05-04T18:43:28.623Z,101012.17
2023-05-04T18:45:56.143Z,101024.84
2023-05-04T18:48:23.225Z,101039.04
2023-05-04T18:50:52.551Z,101053.41
2023-05-04T18:53:19.882Z,101060.84
2023-05-04T18:55:46.828Z,101062.91
2023-05-04T18:58:14.179Z,101042.08
2023-05-04T19:00:42.764Z,101040.05
2023-05-04T19:03:09.773Z,101033.34
2023-05-04T19:05:37.164Z,101022.35
2023-05-04T19:08:04.014Z,101015.25
2023-05-04T19:10:32.049Z,100993.23
2023-05-04T19:13:00.663Z,100947.68
2023-05-04T19:15:28.554Z,100927.00
2023-05-04T19:17:55.501Z,100919.85
2023-05-04T19:20:23.030Z,100921.69
2023-05-04T19:22:49.870Z,100915.91
2023-05-04T19:25:30.985Z,100909.98
2023-05-04T19:28:08.132Z,100927.45
2023-05-04T19:30:38.967Z,100955.42
2023-05-04T19:33:06.227Z,100984.60
2023-05-04T19:35:33.775Z,101011.98
2023-05-04T19:38:01.915Z,101017.24
2023-05-04T19:40:29.213Z,101021.83
2023-05-04T19:42:56.145Z,101037.48
2023-05-04T19:45:23.598Z,101049.48
2023-05-04T19:47:52.598Z,101050.83
2023-05-04T19:50:20.575Z,101051.34
2023-05-04T19:52:47.516Z,101050.91
2023-05-04T19:55:14.451Z,101057.95
2023-05-04T19:57:41.499Z,101071.54
2023-05-04T20:00:10.156Z,101087.35
2023-05-04T20:02:40.517Z,101112.69
2023-05-04T20:05:07.757Z,101132.98
2023-05-04T20:07:34.592Z,101154.01
2023-05-04T20:10:01.690Z,101164.54
2023-05-04T20:12:28.716Z,101084.81
2023-05-04T20:14:55.735Z,101007.27
2023-05-04T20:17:23.569Z,100999.94
2023-05-04T20:19:50.548Z,101010.08
2023-05-04T20:22:17.395Z,101028.48
2023-05-04T20:24:44.429Z,101040.30
2023-05-04T20:27:11.682Z,101054.10
2023-05-04T20:29:38.526Z,101072.66
2023-05-04T20:32:07.262Z,101091.48
2023-05-04T20:34:34.359Z,101105.22
2023-05-04T20:37:01.402Z,101102.36
2023-05-04T20:39:28.245Z,101103.36
2023-05-04T20:41:55.088Z,101096.34
2023-05-04T20:44:22.382Z,101088.36
2023-05-04T20:46:49.508Z,101072.76
2023-05-04T20:49:16.440Z,101065.06
2023-05-04T20:51:43.373Z,101054.13
2023-05-04T20:54:10.248Z,101044.24
2023-05-04T20:56:37.264Z,101025.54
2023-05-04T20:59:04.116Z,101008.22
2023-05-04T21:01:31.080Z,100977.38
2023-05-04T21:03:58.139Z,100950.88
2023-05-04T21:06:25.456Z,100923.50
2023-05-04T21:08:52.237Z,100895.79
2023-05-04T21:11:19.135Z,100881.21
2023-05-04T21:13:45.974Z,100876.52
2023-05-04T21:16:12.939Z,100876.42
2023-05-04T21:18:39.764Z,100875.23
2023-05-04T21:21:06.805Z,100879.40
2023-05-04T21:23:33.655Z,100888.02
2023-05-04T21:26:03.784Z,100894.84
2023-05-04T21:28:30.724Z,100910.61
2023-05-04T21:30:57.557Z,100918.21
2023-05-04T21:33:24.507Z,100900.44
2023-05-04T21:35:51.548Z,100877.95
2023-05-04T21:38:20.326Z,100866.27
2023-05-04T21:40:48.917Z,100856.35
2023-05-04T21:43:16.068Z,100847.98
2023-05-04T21:45:43.008Z,100840.73
2023-05-04T21:48:10.121Z,100836.40
2023-05-04T21:50:37.310Z,100841.58
2023-05-04T21:53:04.255Z,100835.52
2023-05-04T21:55:32.124Z,100831.70
2023-05-04T21:57:58.964Z,100827.70
2023-05-04T22:00:27.806Z,100821.62
2023-05-04T22:02:55.299Z,100826.05
2023-05-04T22:05:23.199Z,100823.04
2023-05-04T22:07:50.741Z,100822.92
2023-05-04T22:10:17.991Z,100823.44
2023-05-04T22:12:45.278Z,100822.73
2023-05-04T22:15:12.382Z,100825.69
2023-05-04T22:17:39.380Z,100824.48
2023-05-04T22:20:07.058Z,100828.48
2023-05-04T22:22:34.549Z,100827.95
2023-05-04T22:25:01.917Z,100847.83
2023-05-04T22:27:28.850Z,100877.27
2023-05-04T22:29:55.792Z,100904.35
2023-05-04T22:32:22.751Z,100919.70
2023-05-04T22:34:49.573Z,100928.66
2023-05-04T22:37:16.520Z,100933.98
2023-05-04T22:39:43.362Z,100929.79
2023-05-04T22:42:10.493Z,100908.83
2023-05-04T22:44:37.357Z,100882.17
2023-05-04T22:47:04.405Z,100875.92
2023-05-04T22:49:31.242Z,100873.62
2023-05-04T22:51:58.085Z,100870.46
2023-05-04T22:54:25.033Z,100864.88
2023-05-04T22:56:51.875Z,100851.48
2023-05-04T22:59:18.727Z,100843.43
2023-05-04T23:01:45.714Z,100829.36
2023-05-04T23:04:12.814Z,100811.09
2023-05-04T23:06:39.867Z,100803.58
2023-05-04T23:09:06.807Z,100806.95
2023-05-04T23:11:33.848Z,100812.20
2023-05-04T23:14:01.205Z,100822.44
2023-05-04T23:16:28.172Z,100848.70
2023-05-04T23:18:55.083Z,100864.79
2023-05-04T23:21:22.140Z,100870.86
2023-05-04T23:23:50.307Z,100879.66
2023-05-04T23:26:17.556Z,100883.10
2023-05-04T23:28:44.400Z,100902.09
2023-05-04T23:31:11.691Z,100944.89
2023-05-04T23:33:38.605Z,100991.29
2023-05-04T23:36:06.257Z,101036.31
2023-05-04T23:38:33.036Z,101072.18
2023-05-04T23:41:02.308Z,101108.40
2023-05-04T23:43:29.138Z,101132.70
2023-05-04T23:46:02.678Z,101164.45
2023-05-04T23:48:30.098Z,101179.11
2023-05-04T23:50:58.678Z,101195.86
2023-05-04T23:53:26.334Z,101201.39
2023-05-04T23:55:57.375Z,101206.06
2023-05-04T23:58:24.216Z,101212.30
